KFCS/FCS METAR and TAF weather

Enter ICAO airport designator
Station Type Date Time Source
KFCS METAR 2021/09/28 16:58 UTC NOAA

KFCS 281658Z AUTO 08003KT 10SM CLR 21/03 A2990 RMK AO2 SLP072 T02110033 $


Station Type Date Time Source
KFCS Decoded METAR 2021/09/28 16:58 UTC NOAA

Fort Carson, CO, United States (KFCS) 38-42N 104-46W 1789M
Sep 28, 2021 - 12:58 PM EDT / 2021.09.28 1658 UTC
Wind: from the E (080 degrees) at 3 MPH (3 KT):0
Visibility: 10 mile(s):0
Sky conditions: clear
Temperature: 70.0 F (21.1 C)
Dew Point: 37.9 F (3.3 C)
Relative Humidity: 30%
Pressure (altimeter): 29.9 in. Hg (1012 hPa)
ob: KFCS 281658Z AUTO 08003KT 10SM CLR 21/03 A2990 RMK AO2 SLP072 T02110033
cycle: 17

Station Type Date Time Source
KFCS TAF 2021/09/28 13:56 UTC NOAA

TAF
AMD KFCS 281337Z 2813/2919 32006KT 9999 SKC QNH2992INS
BECMG 2818/2819 22012G18KT 9000 -SHRA VCTS BKN130CB QNH2984INS
BECMG 2902/2903 35008KT 9999 NSW FEW090 QNH2981INS TX25/2820Z TN09/2813Z

Example: see airport list